Time;durP1;ratioP1;P1;durP2;ratioP2;P2;SDS_P1;SDS_P2;PMS_P1;PMS_P2;Temp;Humidity;BMP_temperature;BMP_pressure;BME280_temperature;BME280_humidity;BME280_pressure;Samples;Min_cycle;Max_cycle;Signal;HPM_P1;HPM_P2
2023/06/22 00:01:35;;;;;;;;;;;23.70;60.30;;;22.73;55.30;99958.94;10206273;28;1069;-66
2023/06/22 00:06:31;;;;;;;;;;;23.70;60.30;;;22.74;55.43;99952.66;10205868;28;810;-66
2023/06/22 00:11:27;;;;;;;;;;;23.70;60.30;;;22.73;55.28;99957.13;10205719;28;798;-66
2023/06/22 00:16:23;;;;;;;;;;;23.60;60.20;;;22.73;55.55;99953.63;10205333;28;1902;-66
2023/06/22 00:21:20;;;;;;;;;;;23.60;60.20;;;22.72;55.32;99951.94;10205277;28;835;-66
2023/06/22 00:26:15;;;;;;;;;;;23.60;60.20;;;22.72;55.27;99959.91;10206069;28;858;-67
2023/06/22 00:31:11;;;;;;;;;;;23.60;60.20;;;22.72;55.36;99951.94;10205450;28;1227;-66
2023/06/22 00:36:12;;;;;;;;;;;23.60;60.20;;;22.72;55.46;99954.59;10204837;28;1980;-66
2023/06/22 00:41:08;;;;;;;;;;;23.60;60.20;;;22.72;55.58;99955.44;10204717;28;936;-66
2023/06/22 00:46:03;;;;;;;;;;;23.60;60.20;;;22.71;55.39;99956.38;10205217;28;855;-67
2023/06/22 00:50:59;;;;;;;;;;;23.60;60.20;;;22.71;55.37;99947.53;10204532;28;814;-66
2023/06/22 00:55:54;;;;;;;;;;;23.60;60.20;;;22.71;55.46;99947.53;10203665;28;1976;-66
2023/06/22 01:00:50;;;;;;;;;;;23.60;60.20;;;22.71;55.53;99950.19;10204291;28;888;-66
2023/06/22 01:05:46;;;;;;;;;;;23.60;60.20;;;22.69;55.48;99944.16;10204114;28;917;-67
2023/06/22 01:10:42;;;;;;;;;;;23.60;60.30;;;22.70;55.41;99959.13;10203922;28;994;-66
2023/06/22 01:15:40;;;;;;;;;;;23.60;60.20;;;22.69;55.39;99952.13;10203790;28;1906;-66
2023/06/22 01:20:36;;;;;;;;;;;23.60;60.30;;;22.69;55.59;99950.31;10203920;28;1109;-66
2023/06/22 01:25:31;;;;;;;;;;;23.60;60.20;;;22.69;55.35;99945.00;10203920;28;802;-66
2023/06/22 01:30:26;;;;;;;;;;;23.60;60.30;;;22.68;55.35;99945.06;10203612;28;944;-66
2023/06/22 01:35:22;;;;;;;;;;;23.60;60.30;;;22.68;55.33;99939.75;10205410;28;1980;-66
2023/06/22 01:40:18;;;;;;;;;;;23.60;60.20;;;22.68;55.47;99939.75;10211583;28;759;-66
2023/06/22 01:45:13;;;;;;;;;;;23.60;60.30;;;22.67;55.54;99940.72;10211291;28;952;-66
2023/06/22 01:50:08;;;;;;;;;;;23.60;60.30;;;22.67;55.54;99932.75;10211727;28;860;-66
2023/06/22 01:55:05;;;;;;;;;;;23.60;60.30;;;22.66;55.61;99933.69;10210807;28;1962;-66
2023/06/22 02:00:01;;;;;;;;;;;23.60;60.30;;;22.66;55.35;99939.88;10210556;28;927;-66
2023/06/22 02:04:56;;;;;;;;;;;23.50;60.20;;;22.65;55.57;99935.50;10209948;28;881;-66
2023/06/22 02:09:51;;;;;;;;;;;23.60;60.30;;;22.65;55.53;99943.47;10210923;28;861;-66
2023/06/22 02:14:47;;;;;;;;;;;23.60;60.30;;;22.66;55.55;99949.63;10210041;28;1961;-66
2023/06/22 02:19:42;;;;;;;;;;;23.50;60.20;;;22.64;55.53;99941.75;10209880;28;776;-66
2023/06/22 02:24:38;;;;;;;;;;;23.60;60.40;;;22.64;55.57;99930.28;10209198;28;791;-66
2023/06/22 02:29:33;;;;;;;;;;;23.50;60.30;;;22.64;55.74;99932.94;10210243;28;877;-66
2023/06/22 02:34:29;;;;;;;;;;;23.60;60.40;;;22.63;55.33;99925.91;10210158;28;1969;-66
2023/06/22 02:39:24;;;;;;;;;;;23.50;60.20;;;22.63;55.58;99928.56;10209212;28;859;-66
2023/06/22 02:44:19;;;;;;;;;;;23.50;60.30;;;22.63;55.35;99925.91;10209005;28;860;-66
2023/06/22 02:49:15;;;;;;;;;;;23.50;60.30;;;22.61;55.64;99915.38;10207547;28;931;-66
2023/06/22 02:54:10;;;;;;;;;;;23.50;60.30;;;22.62;55.53;99914.41;10208730;28;821;-66
2023/06/22 02:59:06;;;;;;;;;;;23.50;60.30;;;22.61;55.68;99909.19;10208515;28;1966;-66
2023/06/22 03:04:01;;;;;;;;;;;23.50;60.30;;;22.60;55.68;99903.03;10207755;28;1039;-66
2023/06/22 03:08:56;;;;;;;;;;;23.50;60.30;;;22.60;55.45;99896.88;10207433;28;936;-66
2023/06/22 03:13:52;;;;;;;;;;;23.50;60.30;;;22.60;55.48;99891.56;10207888;28;884;-66
2023/06/22 03:18:48;;;;;;;;;;;23.50;60.30;;;22.59;55.52;99890.69;10207626;28;1906;-67
2023/06/22 03:23:43;;;;;;;;;;;23.50;60.30;;;22.59;55.45;99897.81;10208127;28;810;-66
2023/06/22 03:28:39;;;;;;;;;;;23.50;60.30;;;22.59;55.45;99881.88;10206749;28;851;-66
2023/06/22 03:33:34;;;;;;;;;;;23.50;61.20;;;22.58;55.38;99880.16;10207198;28;1296;-66
2023/06/22 03:38:29;;;;;;;;;;;23.50;60.40;;;22.57;55.54;99883.78;10207071;28;1911;-66
2023/06/22 03:43:25;;;;;;;;;;;23.50;60.40;;;22.50;55.54;99892.09;10206712;28;925;-66
2023/06/22 03:48:20;;;;;;;;;;;23.40;59.80;;;22.41;55.52;99887.34;10206617;28;752;-66
2023/06/22 03:53:16;;;;;;;;;;;23.30;59.60;;;22.39;55.32;99899.03;10207789;28;837;-66
2023/06/22 03:58:12;;;;;;;;;;;23.30;59.60;;;22.37;55.27;99899.09;10205151;28;1914;-66
2023/06/22 04:03:07;;;;;;;;;;;23.30;59.60;;;22.36;55.33;99888.59;10205668;28;927;-66
2023/06/22 04:08:02;;;;;;;;;;;23.30;59.70;;;22.34;55.38;99891.31;10206453;28;811;-66
2023/06/22 04:12:58;;;;;;;;;;;23.30;59.70;;;22.31;55.39;99887.03;10206297;28;892;-66
2023/06/22 04:17:53;;;;;;;;;;;23.30;59.80;;;22.30;55.51;99879.19;10205450;28;1964;-66
2023/06/22 04:22:49;;;;;;;;;;;23.20;59.90;;;22.27;55.67;99892.66;10205818;28;826;-66
2023/06/22 04:27:44;;;;;;;;;;;23.20;60.10;;;22.26;55.52;99888.28;10205205;28;764;-66
2023/06/22 04:32:40;;;;;;;;;;;23.20;60.20;;;22.26;55.45;99880.31;10205469;28;1095;-66
2023/06/22 04:37:36;;;;;;;;;;;23.20;60.00;;;22.25;55.61;99874.16;10205375;28;1918;-66
2023/06/22 04:42:31;;;;;;;;;;;23.20;60.00;;;22.25;55.50;99886.56;10204813;28;931;-66
2023/06/22 04:47:27;;;;;;;;;;;23.20;60.20;;;22.19;55.96;99894.88;10205110;28;947;-66
2023/06/22 04:52:24;;;;;;;;;;;23.10;60.50;;;22.19;55.85;99902.84;10204280;28;1105;-66
2023/06/22 04:57:20;;;;;;;;;;;23.10;60.40;;;22.19;55.80;99906.38;10204167;28;1989;-66
2023/06/22 05:02:15;;;;;;;;;;;23.10;60.50;;;22.16;55.97;99897.69;10204095;28;880;-66
2023/06/22 05:07:10;;;;;;;;;;;23.10;60.80;;;22.19;56.15;99902.84;10204639;28;843;-66
2023/06/22 05:12:06;;;;;;;;;;;23.10;60.90;;;22.21;56.17;99898.31;10203231;28;794;-66
2023/06/22 05:17:03;;;;;;;;;;;23.10;61.20;;;22.21;56.35;99909.78;10203774;28;1906;-66
2023/06/22 05:21:59;;;;;;;;;;;23.10;61.90;;;22.22;56.72;99897.38;10203713;28;886;-66
2023/06/22 05:26:55;;;;;;;;;;;23.10;62.40;;;22.22;56.82;99902.69;10203712;28;814;-66
2023/06/22 05:31:50;;;;;;;;;;;23.10;62.70;;;22.22;57.05;99898.22;10203798;28;1589;-66
2023/06/22 05:36:46;;;;;;;;;;;23.10;63.20;;;22.19;57.71;99895.78;10203438;28;1906;-65
2023/06/22 05:41:41;;;;;;;;;;;23.10;63.80;;;22.19;57.48;99892.22;10203920;28;877;-66
2023/06/22 05:46:36;;;;;;;;;;;23.10;63.90;;;22.18;57.92;99894.00;10203956;28;833;-66
2023/06/22 05:51:32;;;;;;;;;;;23.10;64.10;;;22.18;57.99;99901.97;10202496;28;878;-66
2023/06/22 05:56:27;;;;;;;;;;;23.10;64.20;;;22.17;58.00;99896.78;10203655;28;1902;-66
2023/06/22 06:01:23;;;;;;;;;;;23.00;64.40;;;22.15;58.25;99896.84;10203919;28;943;-66
2023/06/22 06:06:20;;;;;;;;;;;23.00;64.70;;;22.12;58.64;99890.88;10202967;28;794;-66
2023/06/22 06:11:15;;;;;;;;;;;23.00;65.40;;;22.10;58.92;99902.41;10207071;28;1909;-66
2023/06/22 06:16:11;;;;;;;;;;;23.00;65.60;;;22.08;58.86;99896.34;10202132;28;1884;-66
2023/06/22 06:21:06;;;;;;;;;;;23.00;65.60;;;22.10;59.14;99901.56;10203897;28;871;-66
2023/06/22 06:26:01;;;;;;;;;;;23.00;65.70;;;22.10;59.21;99878.53;10210088;28;787;-67
2023/06/22 06:30:57;;;;;;;;;;;23.00;66.00;;;22.12;59.09;99874.94;10209372;28;1058;-67
2023/06/22 06:35:52;;;;;;;;;;;23.00;65.90;;;22.13;59.42;99871.34;10210403;28;1914;-66
2023/06/22 06:40:48;;;;;;;;;;;23.00;66.40;;;22.17;59.19;99879.03;10209211;28;910;-66
2023/06/22 06:45:44;;;;;;;;;;;23.00;66.70;;;22.14;59.42;99867.72;10209697;28;778;-66
2023/06/22 06:50:39;;;;;;;;;;;23.00;67.20;;;22.16;59.59;99872.00;10208876;28;906;-66
2023/06/22 06:55:35;;;;;;;;;;;23.00;67.20;;;22.19;59.60;99863.03;10208500;28;1914;-66
2023/06/22 07:00:30;;;;;;;;;;;23.00;67.60;;;22.21;59.85;99863.78;10208419;28;860;-66
2023/06/22 07:05:26;;;;;;;;;;;23.00;68.00;;;22.22;60.22;99865.53;10208317;28;787;-66
2023/06/22 07:10:21;;;;;;;;;;;23.00;68.80;;;22.24;60.13;99859.19;10208316;28;814;-66
2023/06/22 07:15:16;;;;;;;;;;;23.00;69.00;;;22.22;60.62;99861.06;10207785;28;1902;-66
2023/06/22 07:20:12;;;;;;;;;;;23.00;69.70;;;22.25;60.90;99862.69;10208356;28;957;-66
2023/06/22 07:25:13;;;;;;;;;;;23.00;70.20;;;22.26;61.26;99864.38;10207477;28;1002;-66
2023/06/22 07:30:09;;;;;;;;;;;23.00;70.70;;;22.28;60.66;99849.22;10208482;28;852;-67
2023/06/22 07:35:04;;;;;;;;;;;23.00;70.20;;;22.30;60.45;99842.88;10206595;28;1918;-66
2023/06/22 07:40:00;;;;;;;;;;;23.00;69.30;;;22.32;60.71;99840.09;10206999;28;806;-66
2023/06/22 07:44:55;;;;;;;;;;;23.10;69.30;;;22.31;60.64;99822.47;10206909;28;798;-67
2023/06/22 07:49:51;;;;;;;;;;;23.10;68.90;;;22.31;60.31;99823.31;10207093;28;940;-66
2023/06/22 07:54:47;;;;;;;;;;;23.10;68.30;;;22.30;60.25;99810.16;10207087;28;1914;-66
2023/06/22 07:59:42;;;;;;;;;;;23.10;68.00;;;22.32;60.16;99813.53;10206167;28;870;-66
2023/06/22 08:04:38;;;;;;;;;;;23.10;68.10;;;22.32;60.11;99818.84;10206452;28;814;-66
2023/06/22 08:09:33;;;;;;;;;;;23.10;68.00;;;22.31;60.23;99814.50;10205594;28;887;-66
2023/06/22 08:14:29;;;;;;;;;;;23.10;67.80;;;22.31;60.24;99811.84;10206219;28;1914;-66
2023/06/22 08:19:24;;;;;;;;;;;23.10;67.80;;;22.32;60.31;99802.91;10205553;28;854;-66
2023/06/22 08:24:20;;;;;;;;;;;23.10;67.80;;;22.33;60.22;99807.31;10205352;28;891;-66
2023/06/22 08:29:15;;;;;;;;;;;23.10;67.60;;;22.31;60.16;99799.41;10205863;28;794;-66
2023/06/22 08:34:11;;;;;;;;;;;23.10;67.70;;;22.34;60.46;99792.22;10205047;28;1126;-66
2023/06/22 08:39:06;;;;;;;;;;;23.10;68.10;;;22.34;60.20;99786.91;10204835;28;1914;-67
2023/06/22 08:44:02;;;;;;;;;;;23.10;67.20;;;22.34;60.29;99774.47;10204705;28;889;-66
2023/06/22 08:48:57;;;;;;;;;;;23.10;67.90;;;22.34;60.20;99776.28;10205139;28;872;-67
2023/06/22 08:53:53;;;;;;;;;;;23.10;67.00;;;22.33;59.83;99772.78;10204447;28;822;-66
2023/06/22 08:58:48;;;;;;;;;;;23.10;66.60;;;22.33;59.81;99756.84;10204423;28;1918;-66
2023/06/22 09:03:44;;;;;;;;;;;23.10;66.60;;;22.35;59.68;99757.59;10204577;28;964;-67
2023/06/22 09:08:39;;;;;;;;;;;23.10;66.60;;;22.37;59.45;99749.53;10204119;28;775;-66
2023/06/22 09:13:34;;;;;;;;;;;23.10;66.90;;;22.35;59.52;99744.34;10204644;28;998;-66
2023/06/22 09:18:30;;;;;;;;;;;23.00;66.20;;;22.35;59.61;99741.69;10204526;28;1914;-66
2023/06/22 09:23:25;;;;;;;;;;;23.10;66.60;;;22.36;59.58;99727.44;10204305;28;786;-66
2023/06/22 09:28:21;;;;;;;;;;;23.10;66.90;;;22.36;59.45;99735.41;10203702;28;822;-66
2023/06/22 09:33:19;;;;;;;;;;;23.00;67.20;;;22.37;59.64;99731.78;10203720;28;1150;-66
2023/06/22 09:38:14;;;;;;;;;;;23.00;67.50;;;22.36;59.55;99724.78;10203394;28;1906;-67
2023/06/22 09:43:10;;;;;;;;;;;23.00;67.90;;;22.36;59.58;99724.78;10203790;28;872;-66
2023/06/22 09:48:05;;;;;;;;;;;23.00;68.00;;;22.38;59.43;99722.88;10203942;28;862;-66
2023/06/22 09:53:01;;;;;;;;;;;23.00;68.00;;;22.38;59.64;99696.34;10203870;28;842;-66
2023/06/22 09:57:56;;;;;;;;;;;23.10;69.30;;;22.39;59.93;99692.72;10207009;28;1906;-66
2023/06/22 10:02:51;;;;;;;;;;;23.10;69.60;;;22.41;60.13;99671.38;10210843;28;945;-67
2023/06/22 10:07:47;;;;;;;;;;;23.00;69.70;;;22.42;60.56;99668.63;10211483;28;780;-67
2023/06/22 10:12:43;;;;;;;;;;;23.10;70.40;;;22.42;60.93;99671.25;10210952;28;953;-67
2023/06/22 10:17:38;;;;;;;;;;;23.00;70.20;;;22.42;60.66;99671.25;10210696;28;1914;-67
2023/06/22 10:22:33;;;;;;;;;;;23.00;70.20;;;22.43;61.13;99677.47;10210347;28;955;-67
2023/06/22 10:27:29;;;;;;;;;;;23.10;70.60;;;22.41;60.50;99664.25;10210014;28;881;-69
2023/06/22 10:32:28;;;;;;;;;;;23.10;70.30;;;22.43;61.12;99650.91;10209534;28;1094;-69
2023/06/22 10:37:23;;;;;;;;;;;23.10;70.90;;;22.44;61.19;99650.78;10209327;28;1906;-70
2023/06/22 10:42:19;;;;;;;;;;;23.10;70.80;;;22.44;61.28;99650.78;10208560;28;1135;-71
2023/06/22 10:47:14;;;;;;;;;;;23.00;70.90;;;22.43;61.49;99643.78;10209682;28;866;-71
2023/06/22 10:52:09;;;;;;;;;;;23.10;71.10;;;22.42;61.06;99633.25;10208899;28;932;-71
2023/06/22 10:57:05;;;;;;;;;;;23.00;70.80;;;22.41;61.37;99632.41;10208038;28;1906;-71
2023/06/22 11:02:00;;;;;;;;;;;23.00;70.60;;;22.41;61.37;99627.09;10208740;28;889;-71
2023/06/22 11:06:56;;;;;;;;;;;23.00;70.40;;;22.40;61.37;99624.50;10209174;28;853;-71
2023/06/22 11:11:53;;;;;;;;;;;23.00;70.30;;;22.40;61.65;99630.69;10207833;28;1208;-70
2023/06/22 11:16:48;;;;;;;;;;;23.00;70.20;;;22.39;60.99;99667.97;10208511;28;1965;-69
2023/06/22 11:21:44;;;;;;;;;;;23.00;70.20;;;22.37;60.68;99677.81;10207781;28;838;-70
2023/06/22 11:26:39;;;;;;;;;;;23.00;70.00;;;22.36;60.54;99705.34;10207562;28;837;-71
2023/06/22 11:31:34;;;;;;;;;;;23.00;69.80;;;22.35;60.43;99711.59;10206959;28;1474;-70
2023/06/22 11:36:32;;;;;;;;;;;23.00;69.80;;;22.33;60.12;99711.69;10207097;28;1969;-70
2023/06/22 11:41:28;;;;;;;;;;;23.00;69.70;;;22.32;59.96;99696.69;10207520;28;832;-71
2023/06/22 11:46:23;;;;;;;;;;;23.00;69.50;;;22.31;59.95;99677.25;10206681;28;872;-71
2023/06/22 11:51:18;;;;;;;;;;;23.00;69.50;;;22.31;59.96;99679.91;10207201;28;900;-71
2023/06/22 11:56:14;;;;;;;;;;;23.00;69.40;;;22.30;59.88;99664.94;10206360;28;2013;-71
2023/06/22 12:01:09;;;;;;;;;;;23.00;69.20;;;22.33;60.21;99671.88;10206753;28;919;-67
2023/06/22 12:06:05;;;;;;;;;;;23.00;69.60;;;22.34;59.88;99662.94;10207157;28;889;-67
2023/06/22 12:11:00;;;;;;;;;;;23.00;69.10;;;22.33;59.71;99629.38;10206631;28;798;-67
2023/06/22 12:15:55;;;;;;;;;;;23.00;69.00;;;22.33;59.76;99631.19;10205949;28;1915;-67
2023/06/22 12:20:51;;;;;;;;;;;23.00;69.80;;;22.34;59.59;99616.94;10205946;28;916;-66
2023/06/22 12:25:46;;;;;;;;;;;23.00;69.20;;;22.32;59.76;99603.75;10205422;28;794;-66
2023/06/22 12:30:42;;;;;;;;;;;23.00;69.20;;;22.33;59.55;99586.06;10205211;28;798;-66
2023/06/22 12:35:37;;;;;;;;;;;23.00;69.10;;;22.30;59.70;99641.06;10205495;28;1907;-66
2023/06/22 12:40:33;;;;;;;;;;;23.00;68.70;;;22.35;59.93;99722.22;10205248;28;795;-66
2023/06/22 12:45:31;;;;;;;;;;;23.00;70.70;;;22.36;59.74;99747.84;10204753;28;850;-66
2023/06/22 12:50:26;;;;;;;;;;;23.00;70.40;;;22.34;60.13;99628.41;10205123;28;943;-67
2023/06/22 12:55:22;;;;;;;;;;;23.00;69.90;;;22.33;59.73;99564.81;10204777;28;1974;-67
2023/06/22 13:00:18;;;;;;;;;;;23.00;68.40;;;22.35;59.46;99561.09;10204762;28;914;-67
2023/06/22 13:05:13;;;;;;;;;;;23.00;67.80;;;22.37;59.44;99561.81;10203966;28;955;-67
2023/06/22 13:10:09;;;;;;;;;;;23.00;67.60;;;22.40;59.30;99548.38;10203806;28;776;-67
2023/06/22 13:15:04;;;;;;;;;;;23.00;67.70;;;22.43;59.02;99531.38;10204244;28;1907;-66
2023/06/22 13:20:00;;;;;;;;;;;23.00;67.90;;;22.44;59.28;99557.81;10203055;28;1169;-67
2023/06/22 13:24:55;;;;;;;;;;;23.00;67.70;;;22.43;59.27;99542.00;10204048;28;814;-67
2023/06/22 13:29:50;;;;;;;;;;;23.00;67.60;;;22.41;59.14;99534.13;10203458;28;834;-66
2023/06/22 13:34:46;;;;;;;;;;;23.00;67.30;;;22.42;59.20;99543.78;10209656;28;1987;-67
2023/06/22 13:39:41;;;;;;;;;;;23.00;67.20;;;22.48;59.00;99538.09;10211383;28;773;-67
2023/06/22 13:44:37;;;;;;;;;;;23.10;67.60;;;22.60;58.75;99531.09;10211872;28;838;-66
2023/06/22 13:49:32;;;;;;;;;;;23.10;67.70;;;22.67;58.44;99511.16;10211040;28;767;-67
2023/06/22 13:54:28;;;;;;;;;;;23.10;67.90;;;22.71;58.58;99495.84;10210908;28;764;-66
2023/06/22 13:59:23;;;;;;;;;;;23.10;68.00;;;22.72;58.85;99458.53;10211296;28;1910;-67
2023/06/22 14:04:18;;;;;;;;;;;23.20;68.30;;;22.69;58.97;99456.09;10210958;28;855;-67
2023/06/22 14:09:14;;;;;;;;;;;23.20;68.60;;;22.70;59.10;99441.84;10209998;28;841;-67
2023/06/22 14:14:09;;;;;;;;;;;23.20;68.60;;;22.73;58.85;99436.31;10210979;28;844;-66
2023/06/22 14:19:05;;;;;;;;;;;23.20;68.40;;;22.84;58.79;99421.44;10210728;28;1883;-67
2023/06/22 14:24:00;;;;;;;;;;;23.20;67.90;;;22.65;59.03;99408.59;10209411;28;868;-66
2023/06/22 14:28:56;;;;;;;;;;;23.20;68.10;;;22.57;59.44;99413.59;10209713;28;891;-67
2023/06/22 14:33:52;;;;;;;;;;;23.20;68.20;;;22.54;59.67;99422.59;10209971;28;1169;-67
2023/06/22 14:38:47;;;;;;;;;;;23.20;68.10;;;22.52;59.35;99422.69;10209626;28;1961;-67
2023/06/22 14:43:42;;;;;;;;;;;23.20;68.10;;;22.50;59.57;99413.97;10209838;28;866;-67
2023/06/22 14:48:38;;;;;;;;;;;23.10;67.80;;;22.49;59.41;99409.63;10209670;28;913;-67
2023/06/22 14:53:33;;;;;;;;;;;23.10;67.70;;;22.49;59.41;99406.97;10208798;28;875;-67
2023/06/22 14:58:29;;;;;;;;;;;23.10;67.60;;;22.48;59.56;99397.31;10208600;28;1957;-67
2023/06/22 15:03:28;;;;;;;;;;;23.10;67.60;;;22.48;59.48;99397.31;10209038;28;927;-65
2023/06/22 15:08:23;;;;;;;;;;;23.10;67.70;;;22.46;59.58;99380.63;10208244;28;1056;-67
2023/06/22 15:13:19;;;;;;;;;;;23.10;67.90;;;22.45;59.50;99331.16;10208140;28;851;-67
2023/06/22 15:18:14;;;;;;;;;;;23.10;67.50;;;22.45;59.46;99325.84;10208564;28;1963;-67
2023/06/22 15:23:09;;;;;;;;;;;23.10;67.70;;;22.45;59.65;99336.47;10207794;28;857;-67
2023/06/22 15:28:05;;;;;;;;;;;23.10;67.70;;;22.45;59.61;99330.28;10207542;28;784;-66
2023/06/22 15:33:00;;;;;;;;;;;23.10;67.60;;;22.44;59.71;99302.88;10207450;28;1134;-67
2023/06/22 15:37:56;;;;;;;;;;;23.10;67.70;;;22.44;59.55;99286.94;10207284;28;1911;-67
2023/06/22 15:42:51;;;;;;;;;;;23.10;67.90;;;22.44;59.75;99280.78;10206714;28;1110;-67
2023/06/22 15:47:47;;;;;;;;;;;23.10;67.90;;;22.43;59.63;99301.19;10207699;28;834;-66
2023/06/22 15:52:42;;;;;;;;;;;23.10;68.00;;;22.43;59.83;99287.91;10207213;28;831;-66
2023/06/22 15:57:37;;;;;;;;;;;23.10;68.10;;;22.42;59.50;99299.47;10205740;28;2350;-66
2023/06/22 16:02:33;;;;;;;;;;;23.10;67.80;;;22.45;59.15;99409.94;10207027;28;818;-66
2023/06/22 16:07:28;;;;;;;;;;;23.10;67.80;;;22.44;59.20;99456.06;10206094;28;911;-65
2023/06/22 16:12:26;;;;;;;;;;;23.10;67.80;;;22.41;59.29;99361.50;10206486;28;936;-67
2023/06/22 16:17:21;;;;;;;;;;;23.10;67.30;;;22.41;59.23;99310.22;10205579;28;1902;-67
2023/06/22 16:22:17;;;;;;;;;;;23.10;68.00;;;22.40;59.01;99306.72;10205935;28;806;-67
2023/06/22 16:27:12;;;;;;;;;;;23.10;67.10;;;22.41;59.02;99275.69;10205406;28;924;-66
2023/06/22 16:32:08;;;;;;;;;;;23.10;66.90;;;22.39;59.30;99259.84;10205093;28;1462;-66
2023/06/22 16:37:03;;;;;;;;;;;23.10;67.10;;;22.39;59.18;99230.66;10205028;28;1977;-66
2023/06/22 16:41:59;;;;;;;;;;;23.10;67.30;;;22.39;59.20;99222.69;10204286;28;870;-66
2023/06/22 16:46:54;;;;;;;;;;;23.10;67.30;;;22.39;59.40;99204.09;10204945;28;945;-66
2023/06/22 16:51:49;;;;;;;;;;;23.10;67.30;;;22.39;59.26;99188.16;10204057;28;826;-66
2023/06/22 16:56:45;;;;;;;;;;;23.10;67.40;;;22.39;59.37;99198.78;10204914;28;1910;-66
2023/06/22 17:01:40;;;;;;;;;;;23.10;67.40;;;22.39;59.42;99208.56;10204361;28;942;-66
2023/06/22 17:06:35;;;;;;;;;;;23.10;67.40;;;22.39;59.29;99222.69;10203299;28;752;-66
2023/06/22 17:11:31;;;;;;;;;;;23.10;67.40;;;22.38;59.43;99215.69;10203505;28;941;-66
2023/06/22 17:16:27;;;;;;;;;;;23.10;67.30;;;22.38;59.36;99225.47;10204523;28;1971;-66
2023/06/22 17:21:22;;;;;;;;;;;23.10;67.30;;;22.38;59.44;99217.50;10205073;28;824;-66
2023/06/22 17:26:18;;;;;;;;;;;23.10;67.30;;;22.39;59.40;99208.56;10203755;28;774;-66
2023/06/22 17:31:13;;;;;;;;;;;23.10;67.10;;;22.38;59.36;99212.19;10202951;28;1169;-67
2023/06/22 17:36:08;;;;;;;;;;;23.10;67.10;;;22.38;59.23;99210.38;10204326;28;1914;-67
2023/06/22 17:41:04;;;;;;;;;;;23.10;67.10;;;22.37;59.25;99187.41;10203516;28;818;-66
2023/06/22 17:45:59;;;;;;;;;;;23.10;67.10;;;22.37;59.41;99176.78;10203672;28;825;-66
2023/06/22 17:50:55;;;;;;;;;;;23.10;67.00;;;22.37;59.31;99176.78;10203438;28;774;-67
2023/06/22 17:55:50;;;;;;;;;;;23.10;67.10;;;22.37;59.39;99189.22;10203671;28;1969;-66
2023/06/22 18:00:45;;;;;;;;;;;23.10;67.10;;;22.35;59.49;99192.00;10203131;28;1025;-67
2023/06/22 18:05:41;;;;;;;;;;;23.10;67.10;;;22.35;59.42;99186.69;10203110;28;891;-66
2023/06/22 18:10:36;;;;;;;;;;;23.10;67.00;;;22.35;59.32;99172.53;10203622;28;858;-66
2023/06/22 18:15:32;;;;;;;;;;;23.10;67.10;;;22.35;59.34;99172.53;10202763;28;1910;-66
2023/06/22 18:20:28;;;;;;;;;;;23.10;67.10;;;22.35;59.48;99176.06;10209131;28;863;-66
2023/06/22 18:25:24;;;;;;;;;;;23.10;67.00;;;22.35;59.29;99165.44;10209638;28;876;-66
2023/06/22 18:30:19;;;;;;;;;;;23.10;67.10;;;22.34;59.32;99147.81;10210241;28;902;-66
2023/06/22 18:35:15;;;;;;;;;;;23.10;67.10;;;22.34;59.44;99149.63;10208582;28;1902;-66
2023/06/22 18:40:10;;;;;;;;;;;23.10;67.10;;;22.35;59.42;99151.31;10209538;28;1661;-66
2023/06/22 18:45:06;;;;;;;;;;;23.10;67.10;;;22.34;59.34;99134.53;10208908;28;1066;-66
2023/06/22 18:50:01;;;;;;;;;;;23.00;66.90;;;22.35;59.52;99130.06;10208744;28;981;-66
2023/06/22 18:54:57;;;;;;;;;;;23.10;67.00;;;22.34;59.21;99126.56;10208536;28;1902;-66
2023/06/22 18:59:53;;;;;;;;;;;23.10;67.00;;;22.33;59.53;99119.56;10208423;28;911;-66
2023/06/22 19:04:48;;;;;;;;;;;23.10;67.00;;;22.33;59.60;99122.22;10208188;28;859;-67
2023/06/22 19:09:43;;;;;;;;;;;23.10;67.20;;;22.34;59.70;99125.72;10208045;28;781;-66
2023/06/22 19:14:39;;;;;;;;;;;23.00;67.20;;;22.34;59.63;99126.56;10207872;28;818;-66
2023/06/22 19:19:35;;;;;;;;;;;23.10;67.40;;;22.33;59.67;99108.09;10207030;28;1978;-66
2023/06/22 19:24:30;;;;;;;;;;;23.00;67.20;;;22.33;59.76;99100.13;10207377;28;883;-66
2023/06/22 19:29:26;;;;;;;;;;;23.00;67.10;;;22.32;59.63;99107.22;10206349;28;784;-66
2023/06/22 19:34:21;;;;;;;;;;;23.00;67.20;;;22.31;59.51;99114.34;10206396;28;1415;-66
2023/06/22 19:39:16;;;;;;;;;;;23.00;67.10;;;22.31;59.62;99113.50;10207660;28;1990;-66
2023/06/22 19:44:13;;;;;;;;;;;23.00;67.10;;;22.30;59.53;99114.47;10206779;28;868;-65
2023/06/22 19:49:08;;;;;;;;;;;23.00;66.90;;;22.31;59.29;99100.25;10206517;28;1573;-64
2023/06/22 19:54:03;;;;;;;;;;;23.00;66.80;;;22.30;59.42;99106.53;10206331;28;967;-64
2023/06/22 19:58:59;;;;;;;;;;;23.00;66.40;;;22.29;59.46;99100.34;10206123;28;1902;-64
2023/06/22 20:03:54;;;;;;;;;;;23.00;66.80;;;22.29;59.65;99097.69;10206606;28;905;-65
2023/06/22 20:08:50;;;;;;;;;;;23.00;67.20;;;22.29;59.65;99092.38;10205820;28;771;-65
2023/06/22 20:13:45;;;;;;;;;;;23.00;68.30;;;22.29;59.82;99083.56;10205340;28;934;-65
2023/06/22 20:18:40;;;;;;;;;;;23.00;67.60;;;22.28;60.13;99072.09;10205952;28;1977;-65
2023/06/22 20:23:36;;;;;;;;;;;23.00;68.10;;;22.28;60.25;99058.81;10206188;28;1021;-65
2023/06/22 20:28:31;;;;;;;;;;;23.00;68.00;;;22.30;60.12;99056.06;10205508;28;814;-66
2023/06/22 20:33:27;;;;;;;;;;;23.00;68.20;;;22.29;60.24;99043.75;10205228;28;1284;-67
2023/06/22 20:38:23;;;;;;;;;;;23.00;68.20;;;22.29;60.33;99041.09;10205632;28;1973;-67
2023/06/22 20:43:18;;;;;;;;;;;23.00;68.00;;;22.29;60.22;99041.94;10204732;28;926;-67
2023/06/22 20:48:13;;;;;;;;;;;23.00;68.10;;;22.29;60.29;99041.09;10204918;28;953;-67
2023/06/22 20:53:09;;;;;;;;;;;23.00;68.00;;;22.28;60.19;99042.91;10186967;28;861;-67
2023/06/22 20:58:05;;;;;;;;;;;23.00;67.90;;;22.29;60.18;99059.66;10204626;28;1918;-67
2023/06/22 21:03:00;;;;;;;;;;;23.00;68.00;;;22.28;60.21;99068.59;10204541;28;1347;-67
2023/06/22 21:07:56;;;;;;;;;;;22.90;67.70;;;22.27;60.28;99062.47;10204203;28;870;-67
2023/06/22 21:12:51;;;;;;;;;;;23.00;67.80;;;22.27;60.11;99056.31;10204039;28;841;-67
2023/06/22 21:17:47;;;;;;;;;;;23.00;67.80;;;22.25;60.40;99048.44;10204721;28;1973;-67
2023/06/22 21:22:44;;;;;;;;;;;23.00;67.80;;;22.25;60.27;99052.91;10203811;28;927;-67
2023/06/22 21:27:41;;;;;;;;;;;23.00;67.80;;;22.25;60.02;99058.22;10204459;28;876;-67
2023/06/22 21:32:36;;;;;;;;;;;23.00;67.80;;;22.25;60.39;99060.88;10204159;28;1249;-67
2023/06/22 21:37:31;;;;;;;;;;;23.00;67.80;;;22.24;60.14;99057.38;10203568;28;1977;-67
2023/06/22 21:42:27;;;;;;;;;;;23.00;67.80;;;22.24;60.04;99048.53;10204118;28;886;-67
2023/06/22 21:47:24;;;;;;;;;;;23.00;67.70;;;22.24;60.08;99048.53;10203319;28;943;-67
2023/06/22 21:52:20;;;;;;;;;;;23.00;67.80;;;22.23;60.15;99044.19;10204592;28;844;-66
2023/06/22 21:57:15;;;;;;;;;;;23.00;67.70;;;22.22;60.15;99048.66;10211630;28;1965;-67
2023/06/22 22:02:10;;;;;;;;;;;22.90;67.50;;;22.23;60.05;99076.91;10211013;28;818;-67
2023/06/22 22:07:06;;;;;;;;;;;23.00;67.90;;;22.22;60.26;99106.22;10210702;28;801;-67
2023/06/22 22:12:02;;;;;;;;;;;23.00;68.10;;;22.20;60.11;99108.97;10210602;28;930;-66
2023/06/22 22:16:59;;;;;;;;;;;22.90;67.90;;;22.19;59.99;99120.56;10210381;28;1910;-67
2023/06/22 22:21:54;;;;;;;;;;;22.90;67.90;;;22.17;59.76;99154.31;10210234;28;944;-67
2023/06/22 22:26:50;;;;;;;;;;;22.90;67.40;;;22.15;59.70;99166.81;10210368;28;877;-67
2023/06/22 22:31:45;;;;;;;;;;;22.90;67.30;;;22.14;59.59;99169.56;10209489;28;1225;-67
2023/06/22 22:36:40;;;;;;;;;;;22.90;67.10;;;22.12;59.50;99175.00;10210120;28;1918;-67
2023/06/22 22:41:36;;;;;;;;;;;22.90;67.00;;;22.11;59.53;99175.94;10208857;28;778;-67
2023/06/22 22:46:31;;;;;;;;;;;22.90;66.80;;;22.11;59.58;99175.94;10209888;28;842;-67